Time;durP1;ratioP1;P1;durP2;ratioP2;P2;SDS_P1;SDS_P2;PMS_P1;PMS_P2;Temp;Humidity;BMP_temperature;BMP_pressure;BME280_temperature;BME280_humidity;BME280_pressure;Samples;Min_cycle;Max_cycle;Signal;HPM_P1;HPM_P2
2022/09/24 00:01:20;;;;;;;5.53;3.25;;;;;;;11.48;77.47;92694.00;5028107;28;20029;-75
2022/09/24 00:03:51;;;;;;;4.72;3.28;;;;;;;11.46;77.37;92702.97;5017346;28;20090;-75
2022/09/24 00:06:18;;;;;;;5.72;3.40;;;;;;;11.45;77.50;92696.13;5027540;28;20048;-75
2022/09/24 00:08:45;;;;;;;5.07;3.17;;;;;;;11.44;77.51;92705.09;5029437;28;20491;-75
2022/09/24 00:11:11;;;;;;;7.60;3.80;;;;;;;11.40;78.25;92698.84;5017856;28;20034;-75
2022/09/24 00:13:38;;;;;;;7.78;4.07;;;;;;;11.50;75.33;92687.41;5024605;28;20088;-75
2022/09/24 00:16:07;;;;;;;8.60;4.13;;;;;;;11.48;76.10;92694.78;5024820;28;20124;-76
2022/09/24 00:18:33;;;;;;;4.63;3.40;;;;;;;11.46;76.71;92692.47;5031819;28;20026;-75
2022/09/24 00:20:59;;;;;;;5.75;3.45;;;;;;;11.45;76.63;92690.91;5026916;28;20037;-75
2022/09/24 00:23:25;;;;;;;5.90;3.50;;;;;;;11.45;77.16;92696.13;5028365;28;20034;-75
2022/09/24 00:28:36;;;;;;;8.85;4.05;;;;;;;11.43;77.62;92684.38;5029835;28;20053;-75
2022/09/24 00:31:06;;;;;;;6.32;3.88;;;;;;;11.42;77.95;92686.25;5028375;28;20131;-75
2022/09/24 00:33:33;;;;;;;8.15;3.88;;;;;;;11.41;78.04;92681.28;5027598;28;20472;-75
2022/09/24 00:36:01;;;;;;;6.03;4.03;;;;;;;11.41;78.46;92678.66;5020185;28;20038;-75
2022/09/24 00:38:31;;;;;;;5.75;4.07;;;;;;;11.39;78.16;92675.53;5025349;28;20108;-75
2022/09/24 00:40:58;;;;;;;7.88;4.60;;;;;;;11.38;77.70;92674.75;5024123;28;20041;-75
2022/09/24 00:43:34;;;;;;;10.85;4.57;;;;;;;11.37;77.53;92665.34;5027901;28;20487;-75
2022/09/24 00:46:40;;;;;;;7.18;4.80;;;;;;;11.34;77.75;92660.66;5026971;28;20403;-76
2022/09/24 00:49:13;;;;;;;9.20;5.00;;;;;;;11.33;77.92;92669.59;5008841;28;20523;-75
2022/09/24 00:51:41;;;;;;;7.32;5.10;;;;;;;11.32;77.60;92664.63;5035464;28;20029;-75
2022/09/24 00:54:28;;;;;;;8.50;5.60;;;;;;;11.30;76.87;92661.53;5033530;28;20041;-76
2022/09/24 00:56:57;;;;;;;12.00;5.63;;;;;;;11.28;76.83;92661.84;5026591;28;20049;-75
2022/09/24 00:59:24;;;;;;;9.13;5.95;;;;;;;11.27;76.69;92652.41;5031759;28;20049;-75
2022/09/24 01:01:56;;;;;;;11.73;6.25;;;;;;;11.29;77.35;92652.91;5032482;28;20402;-75
2022/09/24 01:04:24;;;;;;;11.77;6.00;;;;;;;11.28;77.01;92658.41;5046825;28;20038;-75
2022/09/24 01:06:51;;;;;;;8.52;6.30;;;;;;;11.27;77.33;92657.63;5015191;28;20483;-76
2022/09/24 01:09:19;;;;;;;10.90;6.40;;;;;;;11.23;76.52;92648.78;5030477;28;20060;-74
2022/09/24 01:12:13;;;;;;;10.82;6.88;;;;;;;11.24;76.39;92653.75;5032080;28;20302;-75
2022/09/24 01:15:05;;;;;;;10.07;6.80;;;;;;;11.24;76.35;92645.13;5030606;28;20036;-75
2022/09/24 01:17:34;;;;;;;11.30;6.47;;;;;;;11.25;76.60;92654.53;5032185;28;21685;-74
2022/09/24 01:20:15;;;;;;;9.65;6.50;;;;;;;11.24;76.43;92647.75;5026077;28;20041;-74
2022/09/24 01:23:20;;;;;;;8.98;6.60;;;;;;;11.21;75.87;92649.09;5013178;28;20440;-75
2022/09/24 01:26:18;;;;;;;10.63;7.13;;;;;;;11.19;75.42;92660.91;5021919;28;20049;-75
2022/09/24 01:29:04;;;;;;;12.30;6.85;;;;;;;11.16;75.24;92643.13;5009050;28;20100;-75
2022/09/24 01:31:39;;;;;;;8.90;6.78;;;;;;;11.18;75.40;92646.25;5031613;28;20124;-75
2022/09/24 01:34:07;;;;;;;8.38;6.72;;;;;;;11.18;75.63;92635.78;5032392;28;20124;-75
2022/09/24 01:36:35;;;;;;;12.55;7.13;;;;;;;11.18;76.33;92641.00;5034654;28;20068;-75
2022/09/24 01:39:04;;;;;;;8.27;6.20;;;;;;;11.17;76.25;92642.84;5031401;28;20080;-75
2022/09/24 01:41:33;;;;;;;14.18;7.18;;;;;;;11.19;75.54;92637.31;5030879;28;20073;-75
2022/09/24 01:44:00;;;;;;;13.02;7.47;;;;;;;11.18;74.75;92635.78;5032203;28;20098;-75
2022/09/24 01:46:26;;;;;;;11.35;7.22;;;;;;;11.16;74.83;92632.66;5030708;28;20041;-75
2022/09/24 01:48:52;;;;;;;11.80;7.50;;;;;;;11.18;74.92;92627.91;5029589;28;20046;-75
2022/09/24 01:51:27;;;;;;;10.10;6.50;;;;;;;11.19;74.66;92627.63;5034953;28;20083;-75
2022/09/24 01:54:16;;;;;;;11.20;7.57;;;;;;;11.18;75.32;92627.91;5030543;28;20034;-75
2022/09/24 01:56:55;;;;;;;12.45;7.75;;;;;;;11.17;75.21;92624.50;5031715;28;20388;-76
2022/09/24 01:59:27;;;;;;;9.80;7.15;;;;;;;11.17;74.80;92632.38;5031541;28;20042;-76
2022/09/24 02:02:05;;;;;;;10.38;7.13;;;;;;;11.18;74.60;92627.91;5030477;28;20044;-76
2022/09/24 02:04:39;;;;;;;10.48;7.63;;;;;;;11.16;74.75;92622.19;5031077;28;20033;-75
2022/09/24 02:07:32;;;;;;;12.60;8.05;;;;;;;11.15;74.32;92618.78;5031161;28;20045;-75
2022/09/24 02:09:57;;;;;;;10.13;6.78;;;;;;;11.16;74.55;92614.31;5030098;28;20399;-74
2022/09/24 02:12:38;;;;;;;11.05;8.30;;;;;;;11.15;74.33;92610.91;5031026;28;20040;-75
2022/09/24 02:15:10;;;;;;;13.40;7.43;;;;;;;11.14;74.89;92611.97;5030457;28;20040;-75
2022/09/24 02:17:39;;;;;;;10.55;7.32;;;;;;;11.15;74.70;92602.28;5029239;28;20454;-74
2022/09/24 02:20:10;;;;;;;11.75;7.65;;;;;;;11.13;75.22;92599.19;5031527;28;20057;-75
2022/09/24 02:22:38;;;;;;;12.50;7.40;;;;;;;11.10;75.43;92600.53;5030848;28;20041;-75
2022/09/24 02:25:05;;;;;;;15.70;7.03;;;;;;;11.09;75.34;92598.97;5013022;28;20041;-75
2022/09/24 02:27:31;;;;;;;10.75;7.13;;;;;;;11.08;74.64;92599.22;5013992;28;20045;-75
2022/09/24 02:29:58;;;;;;;10.88;7.45;;;;;;;11.06;73.95;92596.16;5029218;28;20021;-75
2022/09/24 02:32:28;;;;;;;10.27;7.20;;;;;;;11.06;73.57;92593.53;5033644;28;20494;-75
2022/09/24 02:35:01;;;;;;;11.05;7.10;;;;;;;11.05;73.39;92584.88;5030289;28;20055;-75
2022/09/24 02:37:28;;;;;;;14.65;7.15;;;;;;;11.06;73.07;92589.06;5031679;28;20514;-75
2022/09/24 02:39:54;;;;;;;11.68;7.45;;;;;;;11.04;72.88;92586.72;5030821;28;20483;-75
2022/09/24 02:42:21;;;;;;;9.95;6.78;;;;;;;11.04;72.71;92586.72;5031686;28;20435;-75
2022/09/24 02:44:46;;;;;;;11.15;7.10;;;;;;;11.02;72.60;92580.22;5026795;28;20045;-75
2022/09/24 02:47:13;;;;;;;12.13;7.05;;;;;;;11.02;72.69;92575.75;5029938;28;20531;-75
2022/09/24 02:49:38;;;;;;;12.98;7.22;;;;;;;11.06;72.63;92577.81;5029094;28;20044;-75
2022/09/24 02:52:04;;;;;;;12.82;6.57;;;;;;;11.03;72.81;92572.06;5035306;28;20033;-75
2022/09/24 02:54:30;;;;;;;13.90;7.10;;;;;;;11.04;72.81;92575.47;5029643;28;20258;-75
2022/09/24 02:56:56;;;;;;;14.55;6.95;;;;;;;11.00;72.72;92570.00;5029467;28;20415;-75
2022/09/24 02:59:22;;;;;;;10.68;6.75;;;;;;;11.00;73.04;92570.00;5029038;28;20033;-74
2022/09/24 03:01:48;;;;;;;12.00;6.95;;;;;;;10.99;72.70;92568.47;5026160;28;20046;-75
2022/09/24 03:04:15;;;;;;;9.73;7.00;;;;;;;10.98;72.66;92566.13;5029734;28;20028;-75
2022/09/24 03:06:41;;;;;;;9.57;6.88;;;;;;;11.00;72.53;92562.16;5029292;28;20179;-75
2022/09/24 03:09:06;;;;;;;10.77;7.25;;;;;;;10.99;72.56;92557.22;5035888;28;20131;-75
2022/09/24 03:11:34;;;;;;;9.85;7.03;;;;;;;10.96;72.79;92558.53;5035325;28;20026;-75
2022/09/24 03:14:00;;;;;;;9.50;7.13;;;;;;;10.94;72.58;92554.66;5004462;28;20041;-75
2022/09/24 03:16:26;;;;;;;10.00;7.22;;;;;;;10.95;72.60;92557.00;5029004;28;20517;-75
2022/09/24 03:18:51;;;;;;;11.88;7.03;;;;;;;10.93;72.99;92548.66;5026044;28;20032;-75
2022/09/24 03:21:19;;;;;;;10.02;6.90;;;;;;;10.92;73.20;92557.59;5023631;28;20045;-75
2022/09/24 03:23:45;;;;;;;9.23;7.18;;;;;;;10.90;73.30;92554.47;5018566;28;20472;-75
2022/09/24 03:26:11;;;;;;;10.10;6.88;;;;;;;10.91;73.34;92556.00;5030422;28;20408;-75
2022/09/24 03:28:37;;;;;;;10.63;7.10;;;;;;;10.90;72.97;92553.66;5028120;28;20384;-74
2022/09/24 03:31:03;;;;;;;9.52;6.72;;;;;;;10.88;73.11;92543.50;5027087;28;20045;-75
2022/09/24 03:33:40;;;;;;;11.43;6.90;;;;;;;10.87;73.16;92544.56;5029723;28;20361;-75
2022/09/24 03:36:09;;;;;;;9.60;6.63;;;;;;;10.89;73.22;92547.66;5029422;28;20446;-75
2022/09/24 03:38:36;;;;;;;9.90;6.60;;;;;;;10.89;73.13;92539.81;5030640;28;20490;-74
2022/09/24 03:41:02;;;;;;;11.15;7.25;;;;;;;10.90;72.87;92538.75;5028012;28;20029;-75
2022/09/24 03:43:28;;;;;;;10.82;7.13;;;;;;;10.89;72.65;92542.44;5029794;28;20131;-75
2022/09/24 03:45:54;;;;;;;12.02;6.50;;;;;;;10.88;72.77;92546.13;5012976;28;20124;-75
2022/09/24 03:48:21;;;;;;;11.55;6.90;;;;;;;10.86;72.80;92542.25;5028441;28;20381;-75
2022/09/24 03:50:47;;;;;;;13.07;6.80;;;;;;;10.87;72.78;92539.31;5007735;28;20034;-75
2022/09/24 03:53:13;;;;;;;9.48;6.55;;;;;;;10.84;72.78;92532.81;5020764;28;20120;-75
2022/09/24 03:55:45;;;;;;;9.63;7.07;;;;;;;10.85;72.52;92536.19;5001901;28;20041;-74
2022/09/24 03:58:12;;;;;;;11.77;7.13;;;;;;;10.83;73.16;92533.13;5029578;28;20597;-75
2022/09/24 04:00:38;;;;;;;11.63;6.68;;;;;;;10.84;73.02;92537.28;5026293;28;20599;-75
2022/09/24 04:03:04;;;;;;;11.10;7.60;;;;;;;10.85;73.07;92528.34;5029439;28;20041;-75
2022/09/24 04:05:30;;;;;;;10.60;6.80;;;;;;;10.83;73.16;92527.88;5029709;28;20029;-75
2022/09/24 04:07:58;;;;;;;9.73;6.88;;;;;;;10.84;73.04;92526.81;5030847;28;20502;-75
2022/09/24 04:10:24;;;;;;;10.88;6.53;;;;;;;10.83;73.00;92526.03;5027646;28;20133;-75
2022/09/24 04:12:51;;;;;;;12.85;6.43;;;;;;;10.82;73.08;92523.69;5027817;28;20120;-75
2022/09/24 04:15:17;;;;;;;12.77;6.80;;;;;;;10.80;73.08;92525.81;5044867;28;20033;-75
2022/09/24 04:17:54;;;;;;;12.30;6.88;;;;;;;10.81;72.97;92519.53;5013129;28;20103;-74
2022/09/24 04:20:21;;;;;;;9.75;7.03;;;;;;;10.80;73.06;92508.25;5027486;28;20092;-74
2022/09/24 04:22:51;;;;;;;9.07;6.43;;;;;;;10.79;73.04;92503.31;5026235;28;20040;-75
2022/09/24 04:25:17;;;;;;;9.88;6.78;;;;;;;10.79;73.16;92505.94;5017470;28;20087;-75
2022/09/24 04:27:43;;;;;;;10.57;6.63;;;;;;;10.77;73.31;92502.81;5033028;28;20046;-74
2022/09/24 04:30:11;;;;;;;8.68;6.50;;;;;;;10.76;74.95;92511.72;5032236;28;20029;-75
2022/09/24 04:32:37;;;;;;;11.40;6.70;;;;;;;10.77;75.76;92510.69;5030112;28;20037;-75
2022/09/24 04:35:03;;;;;;;10.00;6.60;;;;;;;10.78;74.76;92514.84;5031447;28;20235;-75
2022/09/24 04:37:29;;;;;;;11.32;6.60;;;;;;;10.76;74.56;92517.75;5047431;28;20033;-75
2022/09/24 04:39:54;;;;;;;13.05;7.45;;;;;;;10.74;74.28;92527.75;5030890;28;20048;-75
2022/09/24 04:42:21;;;;;;;11.38;7.15;;;;;;;10.72;73.98;92522.00;5007843;28;20046;-75
2022/09/24 04:44:46;;;;;;;11.88;7.07;;;;;;;10.72;73.57;92521.25;5025904;28;20065;-75
2022/09/24 04:47:16;;;;;;;10.80;6.95;;;;;;;10.74;73.42;92530.38;5023361;28;20068;-75
2022/09/24 04:49:43;;;;;;;10.10;6.60;;;;;;;10.71;73.80;92532.75;5028451;28;20041;-74
2022/09/24 04:52:09;;;;;;;11.38;7.15;;;;;;;10.70;73.80;92539.84;5007262;28;20026;-74
2022/09/24 04:54:34;;;;;;;10.00;6.43;;;;;;;10.70;73.79;92528.59;5039151;28;20414;-78
2022/09/24 04:57:00;;;;;;;12.63;6.53;;;;;;;10.72;73.94;92523.88;5014932;28;20060;-75
2022/09/24 04:59:26;;;;;;;9.82;7.10;;;;;;;10.76;73.49;92516.97;5023363;28;20045;-76
2022/09/24 05:01:53;;;;;;;12.80;6.72;;;;;;;10.74;74.03;92519.09;5031448;28;20049;-77
2022/09/24 05:04:18;;;;;;;11.52;6.53;;;;;;;10.73;75.27;92522.78;5013913;28;20037;-76
2022/09/24 05:06:44;;;;;;;9.38;6.53;;;;;;;10.73;75.38;92522.78;5029606;28;20499;-76
2022/09/24 05:09:09;;;;;;;10.55;6.88;;;;;;;10.71;75.79;92514.44;5025583;28;20492;-76
2022/09/24 05:11:35;;;;;;;9.23;6.38;;;;;;;10.71;75.51;92519.66;5048204;28;20036;-76
2022/09/24 05:14:01;;;;;;;10.15;6.57;;;;;;;10.71;74.99;92524.91;5019947;28;20087;-77
2022/09/24 05:16:26;;;;;;;10.38;6.93;;;;;;;10.70;74.96;92513.66;5033300;28;20083;-77
2022/09/24 05:18:52;;;;;;;10.40;6.80;;;;;;;10.71;74.81;92517.81;5031964;28;20045;-76
2022/09/24 05:21:17;;;;;;;8.73;6.53;;;;;;;10.72;75.04;92523.88;5031986;28;20073;-77
2022/09/24 05:23:43;;;;;;;9.20;7.05;;;;;;;10.72;74.80;92521.25;5011917;28;20133;-77
2022/09/24 05:28:52;;;;;;;11.30;7.28;;;;;;;10.74;75.07;92525.13;5012995;28;20116;-77
2022/09/24 05:31:18;;;;;;;10.10;7.20;;;;;;;10.75;75.28;92523.28;5013327;28;20028;-77
2022/09/24 05:33:44;;;;;;;13.10;7.70;;;;;;;10.76;75.11;92537.91;5017867;28;20057;-76
2022/09/24 05:36:10;;;;;;;10.43;7.13;;;;;;;10.75;74.93;92537.16;5030848;28;20569;-76
2022/09/24 05:38:35;;;;;;;8.98;7.10;;;;;;;10.76;74.84;92537.91;5015169;28;20033;-76
2022/09/24 05:41:01;;;;;;;11.35;7.15;;;;;;;10.75;74.09;92531.13;5031313;28;20045;-77
2022/09/24 05:43:26;;;;;;;14.38;9.55;;;;;;;10.77;73.76;92534.25;5048144;28;20415;-76
2022/09/24 05:45:53;;;;;;;12.40;7.80;;;;;;;10.79;73.94;92538.13;5032349;28;20025;-75
2022/09/24 05:48:20;;;;;;;10.60;7.47;;;;;;;10.81;74.00;92537.84;5031102;28;20033;-76
2022/09/24 05:50:46;;;;;;;13.02;7.00;;;;;;;10.80;74.17;92533.66;5031489;28;20037;-76
2022/09/24 05:53:12;;;;;;;9.77;6.72;;;;;;;10.81;74.40;92535.25;5031252;28;20113;-76
2022/09/24 05:55:38;;;;;;;10.98;7.25;;;;;;;10.81;74.49;92537.84;5032240;28;20415;-76
2022/09/24 05:58:09;;;;;;;9.77;6.85;;;;;;;10.79;75.15;92540.75;5014603;28;20554;-76
2022/09/24 06:00:35;;;;;;;10.15;6.25;;;;;;;10.80;75.46;92533.66;5031297;28;20130;-76
2022/09/24 06:03:04;;;;;;;10.23;7.10;;;;;;;10.80;75.50;92542.28;4998239;28;20126;-76
2022/09/24 06:05:30;;;;;;;9.60;6.90;;;;;;;10.81;75.17;92543.09;5032622;28;20395;-76
2022/09/24 06:07:55;;;;;;;12.77;6.47;;;;;;;10.81;75.27;92543.88;5031524;28;20048;-76
2022/09/24 06:10:21;;;;;;;13.52;6.13;;;;;;;10.81;75.53;92545.72;5031363;28;20045;-76
2022/09/24 06:12:47;;;;;;;19.55;6.85;;;;;;;10.82;77.70;92542.03;5032310;28;20042;-76
2022/09/24 06:15:13;;;;;;;15.43;6.95;;;;;;;10.81;77.57;92540.47;5030879;28;20037;-76
2022/09/24 06:17:38;;;;;;;15.75;6.75;;;;;;;10.79;77.98;92548.59;5014358;28;20042;-76
2022/09/24 06:20:04;;;;;;;9.57;6.95;;;;;;;10.80;79.60;92538.91;5030564;28;20029;-76
2022/09/24 06:22:29;;;;;;;10.23;6.53;;;;;;;10.80;80.80;92541.53;5014198;28;20546;-76
2022/09/24 06:24:55;;;;;;;11.57;7.00;;;;;;;10.78;80.65;92541.03;5014195;28;20128;-76
2022/09/24 06:27:21;;;;;;;10.13;6.85;;;;;;;10.79;80.22;92548.59;5031629;28;20055;-76
2022/09/24 06:29:46;;;;;;;10.07;6.95;;;;;;;10.76;80.65;92543.94;5030864;28;20119;-76
2022/09/24 06:32:12;;;;;;;9.52;7.20;;;;;;;10.75;81.29;92546.84;5030745;28;20041;-76
2022/09/24 06:34:37;;;;;;;10.38;6.88;;;;;;;10.74;81.88;92551.31;5030703;28;20032;-75
2022/09/24 06:37:03;;;;;;;9.63;6.55;;;;;;;10.72;81.45;92552.66;5013583;28;20037;-76
2022/09/24 06:39:28;;;;;;;9.68;7.32;;;;;;;10.69;83.17;92553.22;5031932;28;20072;-76
2022/09/24 06:41:55;;;;;;;10.95;7.50;;;;;;;10.71;81.63;92551.09;5031699;28;20167;-75
2022/09/24 06:44:21;;;;;;;10.18;6.72;;;;;;;10.69;80.31;92550.59;4997073;28;20049;-76
2022/09/24 06:46:47;;;;;;;10.73;7.57;;;;;;;10.67;80.03;92553.47;5012267;28;20033;-76
2022/09/24 06:49:12;;;;;;;10.77;7.60;;;;;;;10.68;80.45;92552.44;5006550;28;20040;-76
2022/09/24 06:51:38;;;;;;;12.63;7.20;;;;;;;10.70;80.68;92555.56;5030854;28;20032;-76
2022/09/24 06:54:04;;;;;;;15.70;7.53;;;;;;;10.70;80.98;92560.78;5012481;28;20092;-76
2022/09/24 06:56:30;;;;;;;12.55;8.20;;;;;;;10.70;80.77;92555.56;5034073;28;20033;-79
2022/09/24 06:58:56;;;;;;;14.20;7.38;;;;;;;10.73;79.96;92554.19;5033869;28;20064;-78
2022/09/24 07:01:21;;;;;;;13.80;7.75;;;;;;;10.75;80.19;92554.69;5032851;28;20068;-80
2022/09/24 07:03:47;;;;;;;16.92;7.18;;;;;;;10.75;80.25;92557.31;5014047;28;20204;-82
2022/09/24 07:06:13;;;;;;;15.02;7.68;;;;;;;10.75;80.64;92554.69;5023895;28;20041;-80
2022/09/24 07:08:38;;;;;;;15.45;9.88;;;;;;;10.80;81.36;92565.09;5031949;28;20025;-78
2022/09/24 07:11:04;;;;;;;14.00;8.70;;;;;;;10.81;81.65;92567.44;5031971;28;20040;-78
2022/09/24 07:13:30;;;;;;;13.27;10.32;;;;;;;10.83;82.19;92569.78;5045801;28;20091;-78
2022/09/24 07:15:55;;;;;;;12.48;8.10;;;;;;;10.80;82.57;92567.72;5020864;28;20128;-78
2022/09/24 07:18:21;;;;;;;13.40;7.85;;;;;;;10.82;82.54;92578.69;5032058;28;20467;-78
2022/09/24 07:20:52;;;;;;;11.95;8.13;;;;;;;10.75;83.29;92573.81;5032496;28;20577;-78
2022/09/24 07:23:18;;;;;;;13.25;8.40;;;;;;;10.79;81.83;92579.25;5031850;28;20620;-78
2022/09/24 07:25:44;;;;;;;10.38;7.95;;;;;;;10.81;81.57;92579.75;5034507;28;20029;-79
2022/09/24 07:28:12;;;;;;;10.35;7.25;;;;;;;10.84;81.05;92589.66;5016177;28;20098;-77
2022/09/24 07:30:38;;;;;;;14.20;6.68;;;;;;;10.85;79.81;92591.19;5031944;28;20087;-77
2022/09/24 07:33:04;;;;;;;11.35;6.90;;;;;;;10.93;79.29;92595.78;5031438;28;20053;-79
2022/09/24 07:35:30;;;;;;;9.90;6.80;;;;;;;10.89;79.43;92597.41;5027841;28;20037;-77
2022/09/24 07:38:15;;;;;;;12.60;6.75;;;;;;;10.88;79.50;92601.13;5051802;28;20048;-77
2022/09/24 07:40:41;;;;;;;10.18;6.72;;;;;;;10.89;80.21;92594.81;5040549;28;20030;-77
2022/09/24 07:43:11;;;;;;;9.50;7.25;;;;;;;10.90;80.33;92596.38;5046404;28;20070;-77
2022/09/24 07:45:37;;;;;;;9.30;6.97;;;;;;;10.93;81.18;92598.41;5049368;28;20131;-77
2022/09/24 07:48:04;;;;;;;9.55;6.75;;;;;;;10.96;80.57;92594.44;5049810;28;20040;-77
2022/09/24 07:50:33;;;;;;;9.90;6.50;;;;;;;10.99;80.15;92605.13;5033697;28;20021;-77
2022/09/24 07:52:59;;;;;;;8.10;5.65;;;;;;;11.02;80.30;92595.94;5032450;28;20510;-77
2022/09/24 07:55:26;;;;;;;7.20;6.00;;;;;;;11.02;82.20;92599.31;5026345;28;20045;-77
2022/09/24 07:57:53;;;;;;;7.72;5.10;;;;;;;11.06;83.27;92604.78;5024913;28;20120;-78
2022/09/24 08:00:20;;;;;;;11.30;6.68;;;;;;;11.08;83.41;92601.84;5037243;28;20033;-78
2022/09/24 08:02:47;;;;;;;10.77;7.07;;;;;;;11.00;84.82;92606.69;5036291;28;20063;-77
2022/09/24 08:05:16;;;;;;;8.65;6.53;;;;;;;11.00;85.04;92609.31;5031998;28;20041;-79
2022/09/24 08:07:50;;;;;;;10.65;6.95;;;;;;;11.03;87.59;92610.56;5045729;28;20404;-79
2022/09/24 08:10:15;;;;;;;8.70;6.70;;;;;;;11.07;86.56;92613.41;5029522;28;20037;-81
2022/09/24 08:12:41;;;;;;;11.10;6.38;;;;;;;11.10;83.23;92615.44;5015169;28;20126;-77
2022/09/24 08:15:07;;;;;;;11.35;6.70;;;;;;;11.20;84.78;92610.06;5031154;28;20034;-78
2022/09/24 08:17:32;;;;;;;9.02;6.40;;;;;;;11.11;80.18;92606.53;5029914;28;20052;-79
2022/09/24 08:19:58;;;;;;;10.65;6.47;;;;;;;11.07;81.24;92616.03;5031111;28;20479;-78
2022/09/24 08:22:25;;;;;;;8.73;6.55;;;;;;;10.97;83.08;92609.88;5029908;28;20069;-78
2022/09/24 08:24:51;;;;;;;8.90;6.03;;;;;;;10.96;83.55;92610.94;5030863;28;20045;-79
2022/09/24 08:27:19;;;;;;;9.88;6.63;;;;;;;10.92;84.50;92609.16;5015022;28;20124;-80
2022/09/24 08:29:45;;;;;;;11.07;6.53;;;;;;;10.77;86.82;92610.94;5031351;28;20034;-79
2022/09/24 08:32:12;;;;;;;9.50;6.78;;;;;;;10.67;88.84;92618.16;5029656;28;20034;-78
2022/09/24 08:34:39;;;;;;;12.27;6.68;;;;;;;10.57;89.92;92619.84;5031379;28;20755;-78
2022/09/24 08:37:08;;;;;;;9.38;6.38;;;;;;;10.59;88.90;92612.50;5030859;28;20075;-78
2022/09/24 08:39:34;;;;;;;10.27;6.63;;;;;;;10.47;90.88;92608.75;5027436;28;20144;-77
2022/09/24 08:42:12;;;;;;;11.25;6.38;;;;;;;10.36;88.87;92616.72;5012006;28;20125;-80
2022/09/24 08:48:03;;;;;;;9.02;6.07;;;;;;;10.32;88.20;92617.56;5012533;28;20042;-78
2022/09/24 08:50:31;;;;;;;8.95;6.45;;;;;;;10.32;90.44;92614.97;5015885;28;20025;-78
2022/09/24 08:53:20;;;;;;;8.65;6.60;;;;;;;10.35;90.89;92612.53;5038896;28;20088;-80
2022/09/24 08:55:48;;;;;;;10.20;7.13;;;;;;;10.37;92.39;92617.50;5032264;28;20118;-78
2022/09/24 08:58:44;;;;;;;8.32;6.47;;;;;;;10.41;93.04;92618.50;5037151;28;20421;-78
2022/09/24 09:01:10;;;;;;;8.75;6.68;;;;;;;10.40;95.84;92620.34;5018115;28;20025;-79
2022/09/24 09:03:39;;;;;;;10.63;7.15;;;;;;;10.40;98.50;92616.94;5030552;28;20053;-79
2022/09/24 09:06:21;;;;;;;8.85;6.53;;;;;;;10.46;96.01;92615.81;5026705;28;20029;-76
2022/09/24 09:08:53;;;;;;;9.80;6.72;;;;;;;10.47;97.53;92617.41;5033422;28;20044;-79
2022/09/24 09:11:23;;;;;;;9.07;6.80;;;;;;;10.46;95.61;92620.28;5030077;28;20038;-77
2022/09/24 09:14:18;;;;;;;12.07;7.00;;;;;;;10.43;97.94;92624.25;5024716;28;20037;-79
2022/09/24 09:16:49;;;;;;;8.82;6.40;;;;;;;10.47;96.27;92630.47;5029244;28;20050;-78
2022/09/24 09:19:18;;;;;;;9.75;6.43;;;;;;;10.44;95.66;92632.88;5033549;28;20046;-77
2022/09/24 09:21:57;;;;;;;10.02;6.72;;;;;;;10.39;93.79;92624.00;5048851;28;20030;-78
2022/09/24 09:24:40;;;;;;;10.30;7.35;;;;;;;10.39;94.02;92628.47;5030877;28;20120;-79
2022/09/24 09:27:13;;;;;;;9.88;6.70;;;;;;;10.38;94.73;92629.53;5036024;28;20044;-79
2022/09/24 09:29:45;;;;;;;10.40;7.35;;;;;;;10.32;97.38;92636.66;5025159;28;20037;-79
2022/09/24 09:32:37;;;;;;;10.25;7.30;;;;;;;10.32;97.92;92635.91;5032602;28;20503;-78
2022/09/24 09:35:05;;;;;;;11.07;7.68;;;;;;;10.27;99.40;92635.91;5019083;28;20040;-78
2022/09/24 09:37:51;;;;;;;10.45;7.30;;;;;;;10.26;100.00;92637.75;5032977;28;20033;-78
2022/09/24 09:40:36;;;;;;;10.23;7.32;;;;;;;10.28;99.10;92642.72;5045597;28;20052;-78
2022/09/24 09:43:07;;;;;;;9.07;6.97;;;;;;;10.38;95.45;92640.00;5036086;28;20388;-78
2022/09/24 09:45:54;;;;;;;9.02;7.05;;;;;;;10.30;97.31;92632.78;5034085;28;20483;-78
2022/09/24 09:48:23;;;;;;;10.80;8.02;;;;;;;10.33;97.27;92629.59;5034081;28;20033;-78
2022/09/24 09:51:03;;;;;;;11.68;8.57;;;;;;;10.32;98.49;92639.28;5063909;28;20037;-78
2022/09/24 09:53:30;;;;;;;13.23;8.07;;;;;;;10.40;99.90;92630.03;5035179;28;20609;-79
2022/09/24 09:55:58;;;;;;;10.00;7.38;;;;;;;10.48;100.00;92626.00;5046876;28;20049;-78
2022/09/24 09:58:27;;;;;;;13.82;8.35;;;;;;;10.52;100.00;92621.78;5026793;28;20345;-79
2022/09/24 10:01:11;;;;;;;12.93;8.93;;;;;;;10.53;100.00;92629.34;5048966;28;20042;-81
2022/09/24 10:03:43;;;;;;;10.48;8.13;;;;;;;10.55;99.66;92627.22;5035801;28;20034;-78
2022/09/24 10:06:11;;;;;;;10.55;7.53;;;;;;;10.62;100.00;92624.25;5036713;28;20041;-79
2022/09/24 10:08:39;;;;;;;11.73;8.18;;;;;;;10.62;100.00;92621.63;5034353;28;20304;-78
2022/09/24 10:11:06;;;;;;;11.00;7.72;;;;;;;10.63;97.74;92631.06;5033425;28;20030;-79
2022/09/24 10:13:32;;;;;;;11.32;8.88;;;;;;;10.65;98.62;92623.69;5029876;28;20045;-79
2022/09/24 10:16:02;;;;;;;12.88;9.23;;;;;;;10.73;99.39;92627.50;5015350;28;20218;-78
2022/09/24 10:18:28;;;;;;;11.48;8.38;;;;;;;10.63;100.00;92623.19;5033425;28;20029;-79
2022/09/24 10:20:55;;;;;;;13.98;9.63;;;;;;;10.39;100.00;92625.84;5033057;28;20044;-79
2022/09/24 10:23:32;;;;;;;13.02;9.05;;;;;;;10.33;100.00;92624.34;5033016;28;20034;-79
2022/09/24 10:26:00;;;;;;;11.57;8.25;;;;;;;10.21;100.00;92628.13;5020410;28;20053;-79
2022/09/24 10:31:31;;;;;;;12.90;9.30;;;;;;;10.31;100.00;92616.00;5019984;28;20037;-77
2022/09/24 10:33:59;;;;;;;19.30;9.75;;;;;;;10.38;100.00;92611.19;5031137;28;20048;-79
2022/09/24 10:36:28;;;;;;;14.30;10.65;;;;;;;10.44;100.00;92599.63;5031163;28;20029;-76
2022/09/24 10:39:06;;;;;;;15.25;10.65;;;;;;;10.54;100.00;92603.97;5032686;28;20518;-78
2022/09/24 10:41:32;;;;;;;14.52;10.55;;;;;;;10.59;100.00;92602.03;5043134;28;20037;-77
2022/09/24 10:44:02;;;;;;;14.30;10.43;;;;;;;10.68;100.00;92594.31;5012725;28;20094;-78
2022/09/24 10:46:27;;;;;;;14.20;10.25;;;;;;;10.71;100.00;92587.75;5032622;28;20037;-79
2022/09/24 10:49:01;;;;;;;15.18;10.80;;;;;;;10.71;98.43;92587.75;5030830;28;20087;-78
2022/09/24 10:51:58;;;;;;;12.05;9.88;;;;;;;10.71;100.00;92592.97;5032587;28;20053;-77
2022/09/24 10:54:56;;;;;;;13.40;9.85;;;;;;;10.75;100.00;92578.25;5031385;28;20049;-78
2022/09/24 10:57:33;;;;;;;13.55;9.52;;;;;;;10.77;100.00;92578.75;5027546;28;20045;-77
2022/09/24 11:00:19;;;;;;;13.38;9.77;;;;;;;10.79;100.00;92580.03;5010660;28;20513;-78
2022/09/24 11:03:09;;;;;;;14.05;9.48;;;;;;;10.82;100.00;92582.06;5022406;28;20124;-77
2022/09/24 11:05:58;;;;;;;13.48;9.68;;;;;;;10.81;100.00;92585.00;5023783;28;20037;-78
2022/09/24 11:08:30;;;;;;;11.95;9.38;;;;;;;10.82;100.00;92583.91;5004607;28;20045;-77
2022/09/24 11:11:10;;;;;;;14.70;11.17;;;;;;;10.81;100.00;92591.00;5028942;28;20441;-77
2022/09/24 11:13:56;;;;;;;15.48;10.38;;;;;;;10.81;100.00;92585.00;5031172;28;20025;-78
2022/09/24 11:17:12;;;;;;;15.68;10.88;;;;;;;10.59;100.00;92581.09;5043160;28;20041;-78
2022/09/24 11:20:11;;;;;;;14.80;11.55;;;;;;;10.60;100.00;92581.88;5004742;28;20095;-79
2022/09/24 11:22:55;;;;;;;18.90;12.65;;;;;;;10.65;100.00;92583.63;5027619;28;20052;-77
2022/09/24 11:25:29;;;;;;;16.35;12.63;;;;;;;10.65;100.00;92581.00;5030582;28;20511;-79
2022/09/24 11:28:26;;;;;;;15.52;11.93;;;;;;;10.68;100.00;92570.00;5031399;28;20405;-78
2022/09/24 11:31:07;;;;;;;16.38;11.68;;;;;;;10.72;100.00;92563.13;5030442;28;20029;-78
2022/09/24 11:33:44;;;;;;;16.23;11.30;;;;;;;10.74;100.00;92560.97;5033225;28;20411;-78
2022/09/24 11:36:31;;;;;;;15.55;11.80;;;;;;;10.74;100.00;92559.16;5025203;28;20029;-80
2022/09/24 11:39:09;;;;;;;16.15;11.80;;;;;;;10.74;100.00;92558.38;5025905;28;20105;-77
2022/09/24 11:41:58;;;;;;;382.42;17.38;;;;;;;10.73;100.00;92560.22;5037407;28;20086;-78
2022/09/24 11:44:53;;;;;;;555.45;21.02;;;;;;;10.61;100.00;92552.03;5042706;28;20067;-78
2022/09/24 11:47:25;;;;;;;144.02;13.18;;;;;;;10.54;100.00;92565.47;5027736;28;20488;-79
2022/09/24 11:50:22;;;;;;;830.47;33.50;;;;;;;10.33;100.00;92561.56;5057494;28;20482;-79
2022/09/24 11:52:59;;;;;;;1524.07;50.80;;;;;;;10.16;100.00;92549.72;5035372;28;20395;-79
2022/09/24 11:55:35;;;;;;;674.28;25.98;;;;;;;10.03;100.00;92547.78;5036857;28;20081;-78